createdAt,value
2023-03-08T00:01:37.235Z,79.94
2023-03-08T00:03:40.667Z,79.90
2023-03-08T00:05:44.289Z,79.83
2023-03-08T00:07:47.557Z,80.03
2023-03-08T00:09:50.852Z,80.01
2023-03-08T00:11:54.143Z,80.00
2023-03-08T00:13:57.567Z,80.03
2023-03-08T00:16:03.076Z,80.03
2023-03-08T00:18:06.450Z,80.09
2023-03-08T00:20:11.363Z,80.01
2023-03-08T00:22:14.628Z,80.04
2023-03-08T00:24:19.776Z,79.85
2023-03-08T00:26:23.347Z,79.74
2023-03-08T00:28:26.836Z,80.03
2023-03-08T00:30:30.086Z,80.09
2023-03-08T00:32:34.870Z,80.08
2023-03-08T00:34:38.170Z,80.11
2023-03-08T00:36:41.425Z,80.20
2023-03-08T00:38:45.141Z,80.33
2023-03-08T00:40:50.612Z,80.44
2023-03-08T00:42:53.829Z,80.35
2023-03-08T00:44:57.082Z,80.62
2023-03-08T00:47:00.715Z,80.52
2023-03-08T00:49:05.477Z,80.61
2023-03-08T00:51:08.793Z,80.86
2023-03-08T00:53:12.543Z,80.88
2023-03-08T00:55:17.699Z,80.93
2023-03-08T00:57:20.973Z,80.88
2023-03-08T00:59:24.406Z,80.93
2023-03-08T01:01:27.673Z,80.91
2023-03-08T01:03:31.054Z,80.99
2023-03-08T01:05:39.739Z,80.94
2023-03-08T01:07:42.995Z,81.10
2023-03-08T01:09:46.257Z,81.12
2023-03-08T01:11:50.296Z,81.07
2023-03-08T01:13:54.867Z,81.08
2023-03-08T01:15:58.216Z,81.16
2023-03-08T01:18:01.445Z,81.26
2023-03-08T01:20:07.285Z,81.31
2023-03-08T01:22:12.417Z,81.43
2023-03-08T01:24:15.648Z,81.51
2023-03-08T01:26:20.968Z,81.50
2023-03-08T01:28:24.242Z,81.59
2023-03-08T01:30:27.578Z,81.60
2023-03-08T01:32:30.901Z,81.60
2023-03-08T01:34:34.914Z,81.75
2023-03-08T01:36:38.176Z,81.87
2023-03-08T01:38:43.120Z,81.81
2023-03-08T01:40:46.336Z,82.01
2023-03-08T01:42:49.935Z,82.17
2023-03-08T01:44:55.975Z,82.21
2023-03-08T01:46:59.651Z,82.32
2023-03-08T01:49:17.712Z,82.26
2023-03-08T01:51:27.453Z,82.35
2023-03-08T01:53:31.449Z,82.37
2023-03-08T01:55:36.369Z,82.42
2023-03-08T01:57:43.593Z,82.31
2023-03-08T01:59:49.727Z,82.55
2023-03-08T02:01:53.618Z,82.58
2023-03-08T02:03:57.855Z,82.30
2023-03-08T02:06:01.938Z,82.56
2023-03-08T02:08:05.745Z,82.62
2023-03-08T02:10:14.351Z,82.63
2023-03-08T02:12:19.362Z,82.78
2023-03-08T02:14:22.689Z,82.79
2023-03-08T02:16:27.512Z,82.92
2023-03-08T02:18:30.806Z,82.87
2023-03-08T02:20:35.881Z,83.08
2023-03-08T02:22:47.788Z,82.96
2023-03-08T02:24:51.172Z,83.17
2023-03-08T02:27:01.244Z,83.38
2023-03-08T02:29:04.523Z,83.38
2023-03-08T02:31:07.815Z,83.55
2023-03-08T02:33:11.144Z,83.81
2023-03-08T02:35:14.448Z,83.94
2023-03-08T02:37:17.721Z,84.14
2023-03-08T02:39:25.422Z,84.17
2023-03-08T02:41:31.488Z,84.22
2023-03-08T02:43:35.069Z,84.26
2023-03-08T02:45:38.430Z,84.46
2023-03-08T02:47:42.364Z,84.53
2023-03-08T02:49:45.895Z,84.55
2023-03-08T02:51:49.149Z,84.37
2023-03-08T02:53:52.477Z,84.36
2023-03-08T02:55:57.213Z,84.55
2023-03-08T02:58:00.448Z,84.33
2023-03-08T03:00:04.145Z,84.40
2023-03-08T03:02:07.489Z,84.35
2023-03-08T03:04:11.752Z,84.30
2023-03-08T03:06:16.815Z,84.07
2023-03-08T03:08:22.612Z,84.09
2023-03-08T03:10:26.030Z,84.00
2023-03-08T03:12:31.077Z,84.18
2023-03-08T03:14:34.442Z,84.13
2023-03-08T03:16:38.673Z,84.03
2023-03-08T03:18:42.385Z,84.01
2023-03-08T03:20:45.691Z,84.01
2023-03-08T03:22:49.031Z,84.02
2023-03-08T03:24:53.766Z,83.99
2023-03-08T03:26:57.227Z,84.04
2023-03-08T03:29:04.648Z,83.94
2023-03-08T03:31:14.249Z,83.94
2023-03-08T03:33:17.629Z,83.96
2023-03-08T03:35:21.745Z,84.02
2023-03-08T03:37:25.310Z,83.96
2023-03-08T03:39:33.891Z,83.98
2023-03-08T03:41:37.835Z,84.07
2023-03-08T03:43:46.667Z,84.12
2023-03-08T03:45:58.310Z,84.09
2023-03-08T03:48:02.299Z,84.11
2023-03-08T03:50:06.929Z,84.12
2023-03-08T03:52:20.846Z,84.17
2023-03-08T03:54:34.582Z,84.11
2023-03-08T03:56:38.678Z,84.01
2023-03-08T03:58:43.424Z,84.02
2023-03-08T04:00:47.685Z,84.04
2023-03-08T04:03:01.553Z,84.09
2023-03-08T04:05:07.183Z,83.88
2023-03-08T04:07:13.954Z,83.97
2023-03-08T04:09:24.778Z,83.90
2023-03-08T04:11:41.025Z,83.89
2023-03-08T04:13:50.248Z,83.95
2023-03-08T04:15:57.619Z,83.93
2023-03-08T04:18:02.353Z,83.86
2023-03-08T04:20:09.869Z,83.84
2023-03-08T04:22:17.850Z,84.08
2023-03-08T04:24:28.870Z,83.93
2023-03-08T04:26:37.934Z,83.79
2023-03-08T04:28:41.344Z,83.88
2023-03-08T04:30:46.514Z,83.88
2023-03-08T04:32:51.301Z,83.93
2023-03-08T04:34:57.172Z,83.84
2023-03-08T04:37:03.532Z,83.84
2023-03-08T04:39:06.823Z,83.80
2023-03-08T04:41:12.187Z,83.78
2023-03-08T04:43:44.924Z,83.60
2023-03-08T04:45:49.033Z,83.59
2023-03-08T04:47:52.411Z,83.50
2023-03-08T04:49:57.972Z,83.48
2023-03-08T04:52:01.508Z,83.51
2023-03-08T04:54:05.652Z,83.36
2023-03-08T04:56:13.356Z,83.45
2023-03-08T04:58:17.557Z,83.31
2023-03-08T05:00:21.336Z,83.23
2023-03-08T05:02:25.174Z,83.34
2023-03-08T05:04:28.487Z,83.29
2023-03-08T05:06:33.252Z,83.20
2023-03-08T05:08:37.284Z,83.17
2023-03-08T05:10:42.330Z,83.26
2023-03-08T05:12:46.369Z,83.08
2023-03-08T05:14:50.603Z,83.16
2023-03-08T05:16:56.606Z,83.15
2023-03-08T05:18:59.981Z,83.04
2023-03-08T05:21:12.416Z,83.02
2023-03-08T05:23:17.664Z,82.87
2023-03-08T05:25:21.462Z,82.94
2023-03-08T05:27:25.473Z,82.98
2023-03-08T05:29:29.369Z,82.70
2023-03-08T05:31:33.511Z,82.66
2023-03-08T05:33:41.336Z,82.74
2023-03-08T05:35:45.132Z,82.59
2023-03-08T05:37:48.708Z,82.57
2023-03-08T05:39:54.012Z,82.53
2023-03-08T05:41:59.311Z,82.53
2023-03-08T05:44:07.934Z,82.56
2023-03-08T05:46:14.796Z,82.61
2023-03-08T05:48:19.210Z,82.45
2023-03-08T05:50:23.074Z,82.36
2023-03-08T05:52:28.617Z,82.51
2023-03-08T05:54:32.144Z,82.66
2023-03-08T05:56:41.074Z,82.63
2023-03-08T05:58:56.396Z,82.63
2023-03-08T06:01:10.554Z,82.50
2023-03-08T06:03:14.084Z,82.50
2023-03-08T06:05:22.185Z,82.43
2023-03-08T06:07:29.717Z,82.48
2023-03-08T06:09:40.473Z,82.23
2023-03-08T06:11:49.373Z,82.34
2023-03-08T06:13:52.731Z,82.19
2023-03-08T06:15:57.674Z,82.17
2023-03-08T06:18:01.394Z,82.02
2023-03-08T06:20:05.201Z,81.92
2023-03-08T06:22:10.571Z,82.04
2023-03-08T06:24:13.834Z,81.97
2023-03-08T06:26:17.870Z,81.93
2023-03-08T06:28:24.013Z,81.84
2023-03-08T06:30:28.593Z,81.83
2023-03-08T06:32:32.195Z,81.70
2023-03-08T06:34:37.034Z,81.73
2023-03-08T06:36:40.851Z,81.80
2023-03-08T06:38:44.551Z,81.56
2023-03-08T06:40:47.920Z,81.66
2023-03-08T06:42:51.284Z,81.65
2023-03-08T06:44:56.480Z,81.65
2023-03-08T06:47:00.004Z,81.62
2023-03-08T06:49:04.401Z,81.27
2023-03-08T06:51:10.047Z,81.57
2023-03-08T06:53:15.694Z,81.55
2023-03-08T06:55:45.084Z,81.62
2023-03-08T06:57:48.489Z,81.50
2023-03-08T06:59:51.814Z,81.45
2023-03-08T07:01:56.546Z,81.52
2023-03-08T07:03:59.996Z,81.31
2023-03-08T07:06:05.621Z,81.26
2023-03-08T07:08:10.152Z,81.19
2023-03-08T07:10:15.584Z,81.18
2023-03-08T07:12:18.993Z,81.11
2023-03-08T07:14:22.382Z,80.91
2023-03-08T07:16:25.743Z,80.97
2023-03-08T07:18:30.401Z,80.82
2023-03-08T07:20:33.783Z,80.70
2023-03-08T07:22:37.285Z,80.85
2023-03-08T07:24:40.890Z,80.60
2023-03-08T07:26:44.227Z,80.53
2023-03-08T07:28:51.394Z,80.27
2023-03-08T07:30:55.064Z,80.41
2023-03-08T07:32:58.423Z,80.21
2023-03-08T07:35:03.200Z,80.17
2023-03-08T07:37:07.560Z,80.09
2023-03-08T07:39:10.833Z,80.04
2023-03-08T07:41:14.514Z,79.91
2023-03-08T07:43:17.900Z,79.63
2023-03-08T07:45:29.067Z,79.65
2023-03-08T07:47:32.476Z,79.53
2023-03-08T07:49:35.892Z,79.55
2023-03-08T07:51:40.861Z,79.55
2023-03-08T07:53:47.065Z,79.35
2023-03-08T07:55:51.331Z,79.25
2023-03-08T07:57:55.077Z,79.12
2023-03-08T07:59:59.087Z,78.92
2023-03-08T08:02:02.629Z,78.83
2023-03-08T08:04:09.882Z,78.64
2023-03-08T08:06:13.328Z,78.64
2023-03-08T08:08:18.285Z,78.39
2023-03-08T08:10:21.621Z,78.11
2023-03-08T08:12:26.528Z,78.10
2023-03-08T08:14:29.956Z,77.91
2023-03-08T08:16:33.410Z,77.69
2023-03-08T08:18:37.464Z,77.47
2023-03-08T08:20:40.752Z,77.67
2023-03-08T08:22:44.065Z,77.58
2023-03-08T08:24:48.776Z,77.53
2023-03-08T08:26:52.126Z,77.49
2023-03-08T08:28:56.548Z,77.40
2023-03-08T08:31:01.022Z,77.24
2023-03-08T08:33:04.352Z,77.14
2023-03-08T08:35:08.422Z,77.36
2023-03-08T08:37:11.750Z,76.85
2023-03-08T08:39:15.220Z,76.90
2023-03-08T08:41:21.680Z,76.82
2023-03-08T08:43:25.028Z,76.91
2023-03-08T08:45:28.287Z,77.04
2023-03-08T08:47:31.745Z,76.90
2023-03-08T08:49:35.131Z,76.91
2023-03-08T08:51:38.516Z,76.73
2023-03-08T08:53:41.757Z,76.68
2023-03-08T08:55:45.669Z,76.33
2023-03-08T08:57:50.393Z,76.23
2023-03-08T08:59:53.606Z,75.99
2023-03-08T09:01:56.789Z,75.99
2023-03-08T09:04:00.191Z,75.80
2023-03-08T09:06:03.469Z,75.68
2023-03-08T09:08:07.473Z,75.63
2023-03-08T09:10:11.648Z,75.58
2023-03-08T09:12:14.876Z,75.33
2023-03-08T09:14:19.417Z,75.15
2023-03-08T09:16:24.588Z,74.95
2023-03-08T09:18:28.261Z,74.67
2023-03-08T09:20:31.549Z,74.67
2023-03-08T09:22:34.745Z,74.72
2023-03-08T09:24:38.161Z,74.50
2023-03-08T09:26:41.464Z,74.46
2023-03-08T09:28:45.081Z,74.41
2023-03-08T09:30:49.788Z,74.53
2023-03-08T09:32:53.083Z,74.80
2023-03-08T09:34:56.587Z,74.84
2023-03-08T09:36:59.796Z,74.86
2023-03-08T09:39:03.650Z,74.63
2023-03-08T09:41:21.971Z,74.89
2023-03-08T09:43:37.131Z,75.26
2023-03-08T09:45:40.461Z,75.27
2023-03-08T09:47:49.263Z,75.11
2023-03-08T09:49:55.638Z,75.24
2023-03-08T09:52:04.325Z,75.10
2023-03-08T09:54:13.664Z,75.05
2023-03-08T09:56:24.506Z,75.06
2023-03-08T09:58:34.156Z,74.73
2023-03-08T10:00:39.288Z,74.97
2023-03-08T10:02:54.794Z,75.00
2023-03-08T10:05:13.426Z,74.75
2023-03-08T10:07:27.031Z,74.76
2023-03-08T10:09:34.581Z,74.65
2023-03-08T10:11:43.469Z,74.72
2023-03-08T10:13:50.554Z,74.55
2023-03-08T10:15:59.536Z,74.68
2023-03-08T10:18:11.963Z,74.77
2023-03-08T10:20:21.120Z,74.69
2023-03-08T10:22:28.415Z,74.24
2023-03-08T10:24:38.266Z,73.81
2023-03-08T10:26:42.385Z,73.50
2023-03-08T10:28:46.005Z,73.26
2023-03-08T10:30:51.263Z,72.88
2023-03-08T10:32:59.898Z,72.67
2023-03-08T10:35:06.483Z,71.96
2023-03-08T10:37:09.944Z,71.75
2023-03-08T10:39:13.181Z,71.48
2023-03-08T10:41:18.156Z,71.19
2023-03-08T10:43:27.975Z,70.95
2023-03-08T10:45:31.422Z,70.89
2023-03-08T10:47:36.724Z,70.66
2023-03-08T10:49:39.993Z,70.44
2023-03-08T10:51:53.369Z,70.17
2023-03-08T10:53:58.338Z,69.87
2023-03-08T10:56:02.877Z,69.70
2023-03-08T10:58:06.450Z,69.59
2023-03-08T11:00:31.243Z,69.18
2023-03-08T11:02:34.668Z,68.89
2023-03-08T11:04:38.005Z,68.81
2023-03-08T11:06:41.237Z,68.79
2023-03-08T11:08:55.465Z,68.41
2023-03-08T11:11:09.695Z,67.88
2023-03-08T11:13:24.902Z,67.58
2023-03-08T11:15:30.538Z,67.62
2023-03-08T11:17:39.471Z,66.89
2023-03-08T11:19:59.951Z,66.62
2023-03-08T11:22:14.176Z,66.27
2023-03-08T11:24:31.764Z,65.80
2023-03-08T11:26:41.948Z,65.59
2023-03-08T11:28:57.919Z,65.44
2023-03-08T11:31:15.193Z,65.52
2023-03-08T11:33:31.762Z,65.82
2023-03-08T11:35:44.671Z,65.78
2023-03-08T11:37:54.890Z,65.51
2023-03-08T11:40:09.120Z,65.14
2023-03-08T11:42:21.245Z,65.19
2023-03-08T11:44:56.188Z,64.69
2023-03-08T11:47:33.255Z,64.94
2023-03-08T11:49:55.070Z,64.04
2023-03-08T11:52:04.735Z,63.82
2023-03-08T11:54:19.500Z,63.51
2023-03-08T11:56:39.056Z,62.35
2023-03-08T11:58:49.384Z,61.52
2023-03-08T12:00:57.720Z,61.51
2023-03-08T12:03:06.073Z,60.68
2023-03-08T12:05:15.211Z,60.80
2023-03-08T12:07:23.443Z,59.95
2023-03-08T12:09:30.755Z,59.56
2023-03-08T12:11:41.548Z,60.03
2023-03-08T12:13:48.090Z,59.84
2023-03-08T12:15:56.467Z,59.71
2023-03-08T12:18:07.644Z,59.20
2023-03-08T12:20:14.637Z,59.09
2023-03-08T12:22:36.479Z,58.71
2023-03-08T12:24:49.722Z,58.04
2023-03-08T12:27:00.105Z,57.46
2023-03-08T12:29:07.012Z,57.41
2023-03-08T12:31:27.830Z,57.18
2023-03-08T12:33:33.495Z,56.82
2023-03-08T12:35:39.309Z,56.64
2023-03-08T12:37:42.627Z,56.24
2023-03-08T12:39:57.610Z,55.67
2023-03-08T12:42:15.245Z,55.19
2023-03-08T12:44:26.706Z,54.64
2023-03-08T12:46:30.000Z,54.10
2023-03-08T12:48:35.797Z,54.23
2023-03-08T12:50:42.973Z,54.80
2023-03-08T12:52:46.627Z,54.40
2023-03-08T12:54:59.297Z,53.54
2023-03-08T12:57:15.650Z,52.83
2023-03-08T12:59:33.948Z,52.69
2023-03-08T13:01:39.954Z,52.49
2023-03-08T13:03:43.617Z,52.41
2023-03-08T13:05:49.749Z,52.20
2023-03-08T13:08:04.048Z,52.18
2023-03-08T13:10:19.907Z,51.97
2023-03-08T13:12:35.400Z,52.09
2023-03-08T13:14:43.845Z,52.11
2023-03-08T13:16:47.091Z,51.91
2023-03-08T13:18:54.987Z,52.38
2023-03-08T13:21:27.983Z,52.75
2023-03-08T13:23:37.668Z,52.43
2023-03-08T13:25:51.802Z,52.26
2023-03-08T13:28:03.586Z,52.08
2023-03-08T13:30:23.912Z,52.67
2023-03-08T13:32:27.394Z,52.98
2023-03-08T13:34:32.590Z,53.11
2023-03-08T13:36:35.829Z,52.52
2023-03-08T13:38:39.197Z,52.81
2023-03-08T13:40:52.308Z,52.96
2023-03-08T13:42:58.640Z,52.63
2023-03-08T13:45:10.825Z,52.70
2023-03-08T13:47:24.733Z,52.60
2023-03-08T13:49:30.140Z,52.54
2023-03-08T13:51:33.338Z,52.49
2023-03-08T13:53:40.425Z,52.79
2023-03-08T13:55:46.093Z,52.66
2023-03-08T13:57:52.506Z,52.98
2023-03-08T13:59:59.544Z,53.12
2023-03-08T14:02:03.007Z,52.76
2023-03-08T14:04:12.897Z,53.01
2023-03-08T14:06:19.048Z,53.23
2023-03-08T14:08:24.989Z,53.53
2023-03-08T14:10:35.831Z,53.24
2023-03-08T14:12:39.105Z,53.59
2023-03-08T14:14:45.763Z,53.51
2023-03-08T14:16:54.720Z,53.33
2023-03-08T14:18:58.775Z,53.42
2023-03-08T14:21:04.469Z,53.59
2023-03-08T14:23:24.847Z,53.93
2023-03-08T14:25:30.170Z,53.77
2023-03-08T14:27:38.960Z,53.68
2023-03-08T14:29:44.028Z,53.78
2023-03-08T14:32:00.415Z,54.31
2023-03-08T14:34:05.421Z,54.62
2023-03-08T14:36:11.238Z,54.68
2023-03-08T14:38:15.687Z,54.97
2023-03-08T14:40:29.347Z,55.32
2023-03-08T14:42:37.240Z,55.18
2023-03-08T14:44:40.919Z,55.14
2023-03-08T14:46:46.041Z,55.29
2023-03-08T14:48:59.955Z,55.30
2023-03-08T14:51:05.248Z,55.89
2023-03-08T14:53:30.704Z,55.87
2023-03-08T14:55:36.342Z,55.92
2023-03-08T14:57:39.600Z,55.98
2023-03-08T14:59:43.364Z,56.32
2023-03-08T15:01:47.126Z,56.55
2023-03-08T15:03:50.335Z,56.80
2023-03-08T15:05:55.765Z,56.68
2023-03-08T15:08:00.795Z,56.75
2023-03-08T15:10:06.934Z,56.67
2023-03-08T15:12:12.169Z,56.60
2023-03-08T15:14:15.551Z,56.41
2023-03-08T15:16:18.978Z,55.98
2023-03-08T15:18:22.228Z,56.17
2023-03-08T15:20:25.572Z,56.00
2023-03-08T15:22:30.126Z,55.82
2023-03-08T15:24:33.463Z,55.51
2023-03-08T15:26:36.699Z,55.29
2023-03-08T15:28:39.923Z,55.20
2023-03-08T15:30:43.201Z,55.68
2023-03-08T15:32:46.453Z,55.36
2023-03-08T15:34:49.800Z,55.12
2023-03-08T15:36:54.122Z,55.39
2023-03-08T15:38:59.705Z,55.23
2023-03-08T15:41:04.888Z,55.33
2023-03-08T15:43:08.446Z,55.41
2023-03-08T15:45:13.293Z,55.19
2023-03-08T15:47:16.752Z,55.61
2023-03-08T15:49:20.099Z,55.64
2023-03-08T15:51:27.272Z,55.92
2023-03-08T15:53:35.673Z,55.81
2023-03-08T15:55:41.558Z,55.72
2023-03-08T15:57:44.821Z,55.81
2023-03-08T15:59:48.488Z,55.48
2023-03-08T16:01:52.476Z,55.36
2023-03-08T16:03:56.975Z,55.45
2023-03-08T16:06:01.179Z,55.50
2023-03-08T16:08:05.057Z,55.50
2023-03-08T16:10:11.086Z,55.60
2023-03-08T16:12:16.828Z,55.45
2023-03-08T16:14:20.060Z,55.37
2023-03-08T16:16:29.737Z,55.28
2023-03-08T16:18:44.084Z,55.43
2023-03-08T16:20:47.311Z,55.64
2023-03-08T16:22:51.137Z,55.54
2023-03-08T16:24:54.623Z,55.68
2023-03-08T16:26:59.404Z,56.02
2023-03-08T16:29:04.559Z,55.87
2023-03-08T16:31:09.349Z,55.89
2023-03-08T16:33:12.716Z,55.90
2023-03-08T16:35:16.148Z,55.90
2023-03-08T16:37:20.206Z,55.83
2023-03-08T16:39:24.499Z,56.02
2023-03-08T16:41:30.072Z,56.19
2023-03-08T16:43:45.615Z,56.38
2023-03-08T16:45:59.516Z,56.69
2023-03-08T16:48:03.090Z,56.50
2023-03-08T16:50:07.484Z,56.61
2023-03-08T16:52:10.979Z,56.97
2023-03-08T16:54:14.899Z,56.87
2023-03-08T16:56:19.584Z,56.97
2023-03-08T16:58:24.480Z,57.17
2023-03-08T17:00:28.219Z,57.39
2023-03-08T17:02:33.219Z,57.89
2023-03-08T17:04:36.732Z,58.05
2023-03-08T17:06:41.006Z,58.43
2023-03-08T17:08:44.353Z,58.63
2023-03-08T17:10:47.686Z,58.54
2023-03-08T17:12:50.976Z,58.63
2023-03-08T17:14:54.233Z,58.95
2023-03-08T17:16:58.078Z,58.91
2023-03-08T17:19:03.570Z,59.46
2023-03-08T17:21:07.730Z,59.46
2023-03-08T17:23:13.225Z,59.58
2023-03-08T17:25:16.775Z,59.88
2023-03-08T17:27:20.224Z,59.95
2023-03-08T17:29:23.921Z,60.31
2023-03-08T17:31:27.383Z,60.39
2023-03-08T17:33:30.743Z,60.46
2023-03-08T17:35:39.812Z,60.53
2023-03-08T17:37:43.573Z,60.86
2023-03-08T17:39:46.850Z,61.19
2023-03-08T17:41:50.150Z,61.42
2023-03-08T17:43:53.503Z,61.44
2023-03-08T17:46:00.390Z,61.51
2023-03-08T17:48:04.022Z,61.48
2023-03-08T17:50:08.835Z,61.77
2023-03-08T17:52:13.439Z,61.83
2023-03-08T17:54:16.854Z,62.05
2023-03-08T17:56:29.349Z,62.36
2023-03-08T17:58:33.161Z,62.27
2023-03-08T18:00:39.446Z,62.52
2023-03-08T18:02:43.379Z,62.71
2023-03-08T18:04:47.896Z,62.88
2023-03-08T18:06:51.176Z,62.95
2023-03-08T18:08:56.708Z,62.91
2023-03-08T18:10:59.968Z,63.11
2023-03-08T18:13:03.264Z,63.22
2023-03-08T18:15:07.984Z,63.48
2023-03-08T18:17:12.407Z,63.54
2023-03-08T18:19:15.790Z,63.47
2023-03-08T18:21:20.350Z,63.67
2023-03-08T18:23:24.716Z,63.67
2023-03-08T18:25:29.500Z,63.84
2023-03-08T18:27:32.888Z,64.00
2023-03-08T18:29:37.076Z,64.00
2023-03-08T18:31:41.182Z,64.05
2023-03-08T18:33:46.258Z,64.20
2023-03-08T18:35:57.609Z,64.37
2023-03-08T18:38:02.835Z,64.39
2023-03-08T18:40:11.915Z,64.29
2023-03-08T18:42:17.876Z,64.60
2023-03-08T18:44:21.134Z,64.70
2023-03-08T18:46:28.828Z,64.65
2023-03-08T18:48:32.465Z,64.92
2023-03-08T18:50:47.341Z,65.10
2023-03-08T18:52:52.489Z,65.21
2023-03-08T18:54:57.045Z,65.19
2023-03-08T18:57:01.211Z,65.40
2023-03-08T18:59:07.583Z,65.30
2023-03-08T19:01:12.845Z,65.45
2023-03-08T19:03:16.909Z,65.66
2023-03-08T19:05:20.666Z,65.56
2023-03-08T19:07:25.733Z,65.71
2023-03-08T19:09:29.279Z,65.92
2023-03-08T19:11:44.595Z,66.04
2023-03-08T19:13:49.133Z,66.16
2023-03-08T19:15:53.827Z,66.21
2023-03-08T19:17:57.899Z,66.36
2023-03-08T19:20:01.154Z,66.43
2023-03-08T19:22:05.397Z,66.79
2023-03-08T19:24:09.384Z,66.87
2023-03-08T19:26:31.646Z,67.11
2023-03-08T19:28:34.941Z,67.16
2023-03-08T19:30:38.250Z,67.14
2023-03-08T19:32:43.120Z,67.46
2023-03-08T19:34:48.407Z,67.50
2023-03-08T19:36:52.168Z,67.62
2023-03-08T19:38:56.909Z,67.76
2023-03-08T19:41:00.157Z,68.04
2023-03-08T19:43:03.493Z,68.16
2023-03-08T19:45:07.862Z,68.25
2023-03-08T19:47:11.253Z,68.51
2023-03-08T19:49:17.953Z,68.64
2023-03-08T19:51:21.826Z,68.75
2023-03-08T19:53:25.218Z,68.90
2023-03-08T19:55:28.586Z,69.16
2023-03-08T19:57:31.994Z,69.21
2023-03-08T19:59:36.761Z,69.26
2023-03-08T20:01:40.643Z,69.37
2023-03-08T20:03:44.302Z,69.58
2023-03-08T20:05:50.018Z,69.55
2023-03-08T20:07:53.406Z,69.65
2023-03-08T20:10:02.303Z,69.86
2023-03-08T20:12:13.750Z,69.98
2023-03-08T20:14:17.098Z,69.95
2023-03-08T20:16:21.239Z,70.15
2023-03-08T20:18:25.748Z,70.20
2023-03-08T20:20:29.105Z,70.29
2023-03-08T20:22:33.902Z,70.41
2023-03-08T20:24:37.229Z,70.46
2023-03-08T20:26:41.983Z,70.57
2023-03-08T20:28:45.295Z,70.60
2023-03-08T20:30:49.031Z,70.63
2023-03-08T20:32:52.341Z,70.74
2023-03-08T20:34:56.116Z,70.75
2023-03-08T20:36:59.378Z,70.80
2023-03-08T20:39:04.705Z,71.00
2023-03-08T20:41:12.036Z,71.14
2023-03-08T20:43:15.239Z,71.27
2023-03-08T20:45:18.858Z,71.23
2023-03-08T20:47:22.775Z,71.10
2023-03-08T20:49:28.283Z,71.20
2023-03-08T20:51:31.736Z,71.16
2023-03-08T20:53:35.872Z,71.28
2023-03-08T20:55:42.106Z,71.42
2023-03-08T20:57:45.633Z,71.45
2023-03-08T20:59:50.056Z,71.38
2023-03-08T21:01:53.921Z,71.44
2023-03-08T21:03:57.471Z,71.45
2023-03-08T21:06:01.016Z,71.48
2023-03-08T21:08:05.287Z,71.38
2023-03-08T21:10:09.511Z,71.70
2023-03-08T21:12:14.291Z,71.59
2023-03-08T21:14:17.594Z,71.87
2023-03-08T21:16:22.914Z,71.81
2023-03-08T21:18:26.617Z,71.74
2023-03-08T21:20:37.514Z,71.69
2023-03-08T21:22:40.840Z,71.80
2023-03-08T21:24:44.054Z,71.81
2023-03-08T21:26:47.266Z,71.71
2023-03-08T21:28:52.695Z,71.82
2023-03-08T21:30:55.983Z,71.85
2023-03-08T21:33:01.292Z,71.85
2023-03-08T21:35:05.179Z,72.03
2023-03-08T21:37:08.437Z,71.71
2023-03-08T21:39:12.241Z,71.84
2023-03-08T21:41:19.142Z,71.91
2023-03-08T21:43:22.484Z,71.97
2023-03-08T21:45:27.325Z,72.04
2023-03-08T21:47:30.548Z,72.14
2023-03-08T21:49:35.357Z,72.02
2023-03-08T21:51:38.939Z,72.23
2023-03-08T21:53:43.269Z,72.26
2023-03-08T21:55:46.715Z,72.33
2023-03-08T21:57:53.292Z,72.18
2023-03-08T21:59:56.462Z,72.36
2023-03-08T22:02:01.164Z,72.29
2023-03-08T22:04:05.788Z,72.33
2023-03-08T22:06:09.110Z,72.35
2023-03-08T22:08:12.494Z,72.41
2023-03-08T22:10:16.176Z,72.45
2023-03-08T22:12:21.665Z,72.36
2023-03-08T22:14:24.942Z,72.46
2023-03-08T22:16:29.838Z,72.41
2023-03-08T22:18:34.438Z,72.50
2023-03-08T22:20:37.618Z,72.56
2023-03-08T22:22:41.741Z,72.54
2023-03-08T22:24:44.938Z,72.49
2023-03-08T22:26:48.119Z,72.49
2023-03-08T22:28:51.952Z,72.56
2023-03-08T22:30:55.141Z,72.51
2023-03-08T22:32:58.345Z,72.44
2023-03-08T22:35:02.934Z,72.51
2023-03-08T22:37:06.889Z,72.59
2023-03-08T22:39:11.932Z,72.54
2023-03-08T22:41:17.026Z,72.62
2023-03-08T22:43:20.272Z,72.58
2023-03-08T22:45:23.555Z,72.52
2023-03-08T22:47:27.595Z,72.49
2023-03-08T22:49:30.806Z,72.63
2023-03-08T22:51:36.513Z,72.62
2023-03-08T22:53:40.458Z,72.78
2023-03-08T22:55:48.298Z,72.61
2023-03-08T22:57:51.639Z,72.66
2023-03-08T22:59:56.353Z,72.66
2023-03-08T23:01:59.635Z,72.70
2023-03-08T23:04:06.139Z,72.73
2023-03-08T23:06:09.593Z,72.57
2023-03-08T23:08:14.259Z,72.68
2023-03-08T23:10:18.546Z,72.86
2023-03-08T23:12:21.798Z,72.73
2023-03-08T23:14:25.286Z,72.79
2023-03-08T23:16:28.637Z,72.76
2023-03-08T23:18:31.837Z,72.71
2023-03-08T23:20:35.131Z,72.77
2023-03-08T23:22:38.361Z,72.91
2023-03-08T23:24:42.957Z,72.86
2023-03-08T23:26:46.967Z,72.87
2023-03-08T23:28:50.114Z,73.00
2023-03-08T23:30:53.336Z,72.95
2023-03-08T23:32:56.788Z,73.07
2023-03-08T23:35:00.331Z,73.04
2023-03-08T23:37:04.331Z,73.21
2023-03-08T23:39:08.232Z,73.22
2023-03-08T23:41:13.961Z,73.27
2023-03-08T23:43:17.133Z,73.35
2023-03-08T23:45:21.095Z,73.49
2023-03-08T23:47:24.276Z,73.48
2023-03-08T23:49:27.457Z,73.45
2023-03-08T23:51:32.380Z,73.64
2023-03-08T23:53:36.267Z,73.83
2023-03-08T23:55:40.455Z,73.80
2023-03-08T23:57:45.062Z,73.82
2023-03-08T23:59:48.451Z,73.72
